Time;durP1;ratioP1;P1;durP2;ratioP2;P2;SDS_P1;SDS_P2;PMS_P1;PMS_P2;Temp;Humidity;BMP_temperature;BMP_pressure;BME280_temperature;BME280_humidity;BME280_pressure;Samples;Min_cycle;Max_cycle;Signal;HPM_P1;HPM_P2
2021/04/27 00:01:00;;;;;;;1.87;1.40;;;5.30;68.00;;;;;;4930529;29;20450;-74
2021/04/27 00:03:27;;;;;;;2.90;1.80;;;5.30;68.00;;;;;;4918749;29;20879;-74
2021/04/27 00:05:55;;;;;;;2.87;2.13;;;5.30;68.00;;;;;;4918782;29;20948;-74
2021/04/27 00:08:22;;;;;;;2.07;1.47;;;5.30;68.00;;;;;;4918694;29;20456;-74
2021/04/27 00:10:49;;;;;;;1.80;1.40;;;5.20;67.90;;;;;;4917425;29;20985;-74
2021/04/27 00:13:16;;;;;;;2.23;1.20;;;5.20;67.90;;;;;;4926355;29;20484;-74
2021/04/27 00:15:43;;;;;;;2.30;1.57;;;5.20;67.90;;;;;;4936583;29;20849;-74
2021/04/27 00:18:11;;;;;;;3.73;1.60;;;5.20;67.90;;;;;;4917232;29;20907;-74
2021/04/27 00:20:38;;;;;;;2.03;1.63;;;5.20;67.80;;;;;;4922850;29;20492;-74
2021/04/27 00:23:05;;;;;;;5.63;1.80;;;5.20;67.80;;;;;;4937342;29;20472;-74
2021/04/27 00:25:32;;;;;;;1.97;1.43;;;5.10;67.70;;;;;;4936166;29;20441;-74
2021/04/27 00:28:00;;;;;;;2.03;1.60;;;5.10;67.60;;;;;;4935975;29;20457;-74
2021/04/27 00:30:28;;;;;;;1.70;1.20;;;5.10;67.60;;;;;;4920169;29;20553;-74
2021/04/27 00:32:56;;;;;;;1.93;0.97;;;5.10;67.60;;;;;;4918209;29;20505;-74
2021/04/27 00:35:25;;;;;;;1.97;1.43;;;5.10;67.60;;;;;;4918483;29;20441;-74
2021/04/27 00:37:52;;;;;;;1.77;1.50;;;5.10;67.60;;;;;;4916458;29;20476;-74
2021/04/27 00:40:22;;;;;;;2.40;1.33;;;5.10;67.60;;;;;;4917703;29;21126;-74
2021/04/27 00:42:50;;;;;;;2.47;1.23;;;5.00;67.50;;;;;;4927359;29;20476;-74
2021/04/27 00:45:19;;;;;;;1.90;1.13;;;5.00;67.50;;;;;;4936573;29;20457;-75
2021/04/27 00:47:47;;;;;;;2.63;1.70;;;5.00;67.40;;;;;;4924607;29;20903;-75
2021/04/27 00:50:18;;;;;;;1.93;1.17;;;5.00;67.40;;;;;;4919006;29;20464;-74
2021/04/27 00:52:47;;;;;;;2.23;1.37;;;5.00;67.40;;;;;;4935597;29;20483;-74
2021/04/27 00:55:16;;;;;;;3.37;1.37;;;5.00;67.40;;;;;;4936929;29;20442;-74
2021/04/27 00:57:43;;;;;;;1.73;1.43;;;4.90;67.30;;;;;;4936773;29;20557;-74
2021/04/27 01:00:13;;;;;;;1.83;1.30;;;4.90;67.30;;;;;;4936323;29;20534;-74
2021/04/27 01:02:41;;;;;;;1.93;1.53;;;4.90;67.30;;;;;;4934441;29;20909;-75
2021/04/27 01:05:11;;;;;;;1.40;1.23;;;4.90;67.30;;;;;;4935356;29;20451;-75
2021/04/27 01:07:45;;;;;;;2.13;1.30;;;4.90;67.40;;;;;;4923219;29;20962;-75
2021/04/27 01:10:14;;;;;;;2.97;1.50;;;4.90;67.40;;;;;;4935374;29;20449;-75
2021/04/27 01:12:48;;;;;;;2.67;1.33;;;4.90;67.40;;;;;;4936963;29;20550;-75
2021/04/27 01:15:18;;;;;;;2.20;1.40;;;4.80;67.30;;;;;;4936815;29;20517;-75
2021/04/27 01:17:48;;;;;;;3.10;1.43;;;4.80;67.40;;;;;;4935228;29;20476;-75
2021/04/27 01:20:18;;;;;;;4.33;1.70;;;4.80;67.40;;;;;;4935192;29;20605;-75
2021/04/27 01:23:14;;;;;;;2.33;1.80;;;4.80;67.40;;;;;;4935064;29;20486;-75
2021/04/27 01:25:50;;;;;;;2.00;1.40;;;4.70;67.30;;;;;;4926465;29;20606;-75
2021/04/27 01:28:19;;;;;;;2.10;1.37;;;4.80;67.60;;;;;;4917391;29;20432;-75
2021/04/27 01:30:48;;;;;;;6.60;2.17;;;4.80;67.40;;;;;;4917337;29;20466;-74
2021/04/27 01:33:19;;;;;;;1.60;1.20;;;4.70;67.40;;;;;;4935361;29;20457;-74
2021/04/27 01:35:47;;;;;;;2.20;1.63;;;4.70;67.40;;;;;;4923745;29;20300;-74
2021/04/27 01:38:17;;;;;;;1.93;1.40;;;4.70;67.50;;;;;;4915899;29;21006;-74
2021/04/27 01:40:44;;;;;;;2.60;1.20;;;4.60;67.50;;;;;;4916237;29;20501;-74
2021/04/27 01:43:13;;;;;;;3.17;2.13;;;4.60;67.40;;;;;;4917546;29;20510;-74
2021/04/27 01:45:42;;;;;;;2.83;1.80;;;4.60;67.50;;;;;;4916101;29;20446;-74
2021/04/27 01:48:10;;;;;;;1.70;1.20;;;4.60;67.50;;;;;;4916370;29;20446;-75
2021/04/27 01:50:41;;;;;;;2.70;1.73;;;4.50;67.50;;;;;;4915902;29;21002;-75
2021/04/27 01:53:27;;;;;;;2.13;1.27;;;4.50;67.50;;;;;;4918300;29;20480;-74
2021/04/27 01:55:55;;;;;;;2.30;1.60;;;4.50;67.50;;;;;;4916267;29;20442;-76
2021/04/27 01:58:22;;;;;;;2.93;1.63;;;4.50;67.50;;;;;;4918025;29;20497;-75
2021/04/27 02:00:50;;;;;;;2.27;1.30;;;4.50;67.60;;;;;;4931188;29;20572;-75
2021/04/27 02:03:18;;;;;;;1.83;1.40;;;4.40;67.50;;;;;;4937315;29;20460;-75
2021/04/27 02:06:08;;;;;;;2.90;1.67;;;4.40;67.50;;;;;;4932589;29;20467;-75
2021/04/27 02:08:36;;;;;;;2.03;1.20;;;4.40;67.50;;;;;;4916649;29;20458;-75
2021/04/27 02:11:04;;;;;;;1.87;1.43;;;4.40;67.50;;;;;;4919571;29;20459;-75
2021/04/27 02:13:33;;;;;;;2.67;1.20;;;4.40;67.60;;;;;;4932240;29;20483;-75
2021/04/27 02:16:05;;;;;;;2.47;1.53;;;4.40;67.60;;;;;;4931024;29;20456;-75
2021/04/27 02:18:36;;;;;;;2.30;1.80;;;4.40;67.60;;;;;;4935210;29;20510;-75
2021/04/27 02:21:12;;;;;;;2.80;1.70;;;4.30;67.60;;;;;;4935062;29;20472;-75
2021/04/27 02:23:57;;;;;;;1.90;1.00;;;4.30;67.60;;;;;;4936342;29;20831;-75
2021/04/27 02:26:30;;;;;;;2.33;1.40;;;4.30;67.60;;;;;;4935317;29;20499;-75
2021/04/27 02:29:06;;;;;;;2.27;1.30;;;4.30;67.60;;;;;;4934505;29;20547;-75
2021/04/27 02:31:34;;;;;;;2.80;1.60;;;4.20;67.60;;;;;;4934354;29;20448;-75
2021/04/27 02:34:04;;;;;;;4.33;1.73;;;4.20;67.60;;;;;;4920187;29;20457;-74
2021/04/27 02:36:37;;;;;;;2.43;1.60;;;4.20;67.70;;;;;;4915934;29;21012;-74
2021/04/27 02:39:11;;;;;;;2.27;1.53;;;4.20;67.70;;;;;;4896633;29;20549;-74
2021/04/27 02:41:39;;;;;;;2.77;1.30;;;4.20;67.70;;;;;;4896670;29;20562;-75
2021/04/27 02:44:27;;;;;;;1.80;1.53;;;4.10;67.70;;;;;;4887558;29;20469;-75
2021/04/27 02:46:56;;;;;;;3.10;1.73;;;4.10;67.70;;;;;;4896493;29;20464;-75
2021/04/27 02:49:24;;;;;;;2.60;1.60;;;4.10;67.70;;;;;;4896968;29;20510;-75
2021/04/27 02:51:58;;;;;;;3.27;2.00;;;4.10;67.80;;;;;;4897896;29;20460;-75
2021/04/27 02:54:27;;;;;;;3.07;2.00;;;4.10;67.80;;;;;;4933053;29;20550;-74
2021/04/27 02:56:55;;;;;;;1.93;1.50;;;4.00;67.80;;;;;;4927444;29;20454;-75
2021/04/27 02:59:31;;;;;;;3.00;1.50;;;4.00;67.90;;;;;;4915515;29;20472;-75
2021/04/27 03:02:00;;;;;;;2.47;1.70;;;4.00;68.00;;;;;;4915261;29;20472;-75
2021/04/27 03:04:27;;;;;;;2.97;1.87;;;4.00;68.00;;;;;;4915809;29;20465;-75
2021/04/27 03:07:08;;;;;;;2.07;1.60;;;3.90;68.00;;;;;;4918618;29;20453;-75
2021/04/27 03:09:38;;;;;;;2.93;1.90;;;3.90;68.00;;;;;;4918788;29;20788;-75
2021/04/27 03:12:06;;;;;;;2.67;1.60;;;3.90;68.10;;;;;;4918056;29;20484;-75
2021/04/27 03:14:37;;;;;;;5.33;1.87;;;3.90;68.20;;;;;;4947303;29;20480;-74
2021/04/27 03:17:06;;;;;;;2.73;2.00;;;3.80;68.10;;;;;;4937431;29;20468;-76
2021/04/27 03:19:35;;;;;;;1.87;1.57;;;3.80;68.20;;;;;;4938442;29;20471;-76
2021/04/27 03:22:09;;;;;;;1.70;1.57;;;3.80;68.20;;;;;;4937308;29;20476;-75
2021/04/27 03:24:36;;;;;;;3.10;2.00;;;3.80;68.30;;;;;;4937201;29;20485;-75
2021/04/27 03:27:04;;;;;;;2.17;1.60;;;3.80;68.40;;;;;;4937241;29;20455;-75
2021/04/27 03:29:55;;;;;;;2.40;1.80;;;3.80;68.50;;;;;;4937828;29;20440;-75
2021/04/27 03:32:24;;;;;;;4.73;2.93;;;3.70;68.40;;;;;;4936086;29;20870;-75
2021/04/27 03:34:52;;;;;;;1.93;1.50;;;3.70;68.50;;;;;;4918198;29;20864;-75
2021/04/27 03:37:20;;;;;;;2.50;1.60;;;3.70;68.50;;;;;;4924189;29;20452;-75
2021/04/27 03:39:47;;;;;;;2.33;1.77;;;3.70;68.50;;;;;;4919767;29;20828;-76
2021/04/27 03:42:14;;;;;;;2.50;1.63;;;3.60;68.50;;;;;;4919150;29;20463;-75
2021/04/27 03:44:43;;;;;;;6.20;1.80;;;3.60;68.50;;;;;;4918239;29;20471;-75
2021/04/27 03:47:11;;;;;;;3.00;2.10;;;3.60;68.60;;;;;;4918451;29;20507;-75
2021/04/27 03:49:41;;;;;;;2.90;1.80;;;3.60;68.60;;;;;;4931644;29;20449;-75
2021/04/27 03:52:08;;;;;;;3.17;1.73;;;3.60;68.70;;;;;;4938064;29;20503;-75
2021/04/27 03:54:35;;;;;;;2.47;1.90;;;3.60;68.80;;;;;;4934986;29;20584;-76
2021/04/27 03:57:03;;;;;;;2.53;1.80;;;3.60;70.20;;;;;;4936747;29;20205;-75
2021/04/27 03:59:40;;;;;;;2.13;1.70;;;3.60;69.30;;;;;;4936854;29;20841;-75
2021/04/27 04:02:07;;;;;;;2.70;1.60;;;3.60;69.20;;;;;;4937137;29;20469;-75
2021/04/27 04:04:35;;;;;;;2.47;1.60;;;3.60;69.20;;;;;;4919975;29;20501;-75
2021/04/27 04:07:16;;;;;;;3.20;1.70;;;3.60;69.20;;;;;;4919290;29;20460;-76
2021/04/27 04:10:01;;;;;;;2.47;1.80;;;3.50;69.10;;;;;;4919310;29;20796;-76
2021/04/27 04:12:31;;;;;;;3.03;1.93;;;3.50;69.20;;;;;;4917886;29;20556;-76
2021/04/27 04:15:01;;;;;;;2.73;1.70;;;3.50;69.20;;;;;;4917314;29;20577;-76
2021/04/27 04:17:32;;;;;;;1.87;1.57;;;3.50;69.20;;;;;;4917449;29;20533;-76
2021/04/27 04:20:00;;;;;;;3.50;2.77;;;3.50;69.40;;;;;;4922158;29;20468;-76
2021/04/27 04:22:36;;;;;;;3.23;1.77;;;3.50;69.30;;;;;;4921865;29;20482;-76
2021/04/27 04:25:10;;;;;;;2.90;1.53;;;3.50;69.40;;;;;;4918758;29;20460;-76
2021/04/27 04:27:37;;;;;;;2.90;2.07;;;3.50;69.40;;;;;;4917285;29;20469;-76
2021/04/27 04:30:09;;;;;;;2.60;1.80;;;3.50;69.50;;;;;;4917062;29;20819;-76
2021/04/27 04:32:42;;;;;;;2.80;2.03;;;3.50;69.50;;;;;;4918842;29;20527;-76
2021/04/27 04:35:30;;;;;;;2.87;1.80;;;3.50;69.50;;;;;;4918772;29;20836;-75
2021/04/27 04:38:23;;;;;;;3.77;2.03;;;3.50;69.60;;;;;;4918310;29;20467;-75
2021/04/27 04:41:28;;;;;;;3.40;1.60;;;3.40;69.50;;;;;;4916370;29;20489;-75
2021/04/27 04:43:56;;;;;;;4.70;2.47;;;3.50;69.70;;;;;;4916264;29;20459;-75
2021/04/27 04:46:58;;;;;;;4.20;1.90;;;3.50;69.70;;;;;;4884062;29;20466;-76
2021/04/27 04:49:34;;;;;;;2.47;1.90;;;3.50;69.80;;;;;;4912779;29;20450;-76
2021/04/27 04:52:30;;;;;;;2.47;1.77;;;3.50;69.80;;;;;;4917952;29;20481;-76
2021/04/27 04:55:31;;;;;;;2.40;1.50;;;3.50;69.80;;;;;;4922192;29;20452;-76
2021/04/27 04:58:10;;;;;;;2.30;1.63;;;3.50;69.80;;;;;;4918668;29;20436;-76
2021/04/27 05:00:50;;;;;;;5.40;1.80;;;3.50;69.90;;;;;;4916272;29;20493;-76
2021/04/27 05:03:35;;;;;;;3.00;1.57;;;3.50;70.00;;;;;;4916251;29;20481;-76
2021/04/27 05:06:42;;;;;;;3.10;1.80;;;3.50;70.10;;;;;;4917671;29;20454;-76
2021/04/27 05:09:28;;;;;;;2.20;1.63;;;3.60;70.20;;;;;;4917998;29;20798;-75
2021/04/27 05:12:06;;;;;;;3.53;2.10;;;3.60;70.20;;;;;;4916446;29;20507;-75
2021/04/27 05:14:43;;;;;;;2.87;1.73;;;3.60;70.20;;;;;;4918226;29;20795;-75
2021/04/27 05:17:15;;;;;;;3.77;2.23;;;3.60;70.30;;;;;;4916699;29;20489;-75
2021/04/27 05:19:43;;;;;;;2.67;2.20;;;3.60;70.30;;;;;;4917754;29;20468;-75
2021/04/27 05:22:10;;;;;;;1.83;1.63;;;3.60;70.40;;;;;;4916178;29;20465;-75
2021/04/27 05:24:39;;;;;;;3.03;1.83;;;3.70;70.40;;;;;;4916300;29;21056;-75
2021/04/27 05:27:20;;;;;;;4.63;2.27;;;3.70;70.50;;;;;;4915656;29;20499;-76
2021/04/27 05:29:48;;;;;;;2.60;2.00;;;3.70;70.50;;;;;;4917746;29;20442;-76
2021/04/27 05:32:15;;;;;;;3.90;2.70;;;3.70;70.50;;;;;;4917549;29;20492;-76
2021/04/27 05:34:43;;;;;;;2.07;1.87;;;3.70;70.50;;;;;;4917851;29;20433;-76
2021/04/27 05:37:10;;;;;;;3.27;2.40;;;3.80;70.70;;;;;;4917788;29;20438;-76
2021/04/27 05:39:37;;;;;;;2.80;2.10;;;3.80;70.70;;;;;;4916395;29;20442;-77
2021/04/27 05:42:05;;;;;;;4.17;2.23;;;3.80;70.80;;;;;;4915967;29;20922;-77
2021/04/27 05:44:34;;;;;;;2.73;1.93;;;3.90;70.80;;;;;;4917154;29;20445;-77
2021/04/27 05:47:01;;;;;;;3.80;2.10;;;3.90;70.80;;;;;;4917802;29;20424;-79
2021/04/27 05:49:28;;;;;;;4.03;1.97;;;3.90;70.90;;;;;;4916035;29;20969;-77
2021/04/27 05:51:55;;;;;;;4.00;2.33;;;4.00;71.00;;;;;;4915738;29;20825;-77
2021/04/27 05:54:22;;;;;;;1.87;1.53;;;4.10;71.10;;;;;;4917555;29;20513;-77
2021/04/27 05:56:49;;;;;;;7.73;2.20;;;4.20;71.10;;;;;;4917126;29;20456;-77
2021/04/27 05:59:17;;;;;;;2.83;2.13;;;4.40;71.20;;;;;;4915868;29;20489;-78
2021/04/27 06:01:44;;;;;;;4.00;2.53;;;4.60;71.30;;;;;;4917009;29;20457;-78
2021/04/27 06:04:12;;;;;;;7.47;2.27;;;4.80;71.30;;;;;;4915886;29;20960;-78
2021/04/27 06:06:39;;;;;;;4.20;2.23;;;5.10;71.40;;;;;;4915753;29;20457;-78
2021/04/27 06:09:07;;;;;;;2.70;2.00;;;5.50;71.70;;;;;;4916875;29;20473;-78
2021/04/27 06:11:35;;;;;;;3.50;3.20;;;5.80;71.80;;;;;;4917154;29;20449;-78
2021/04/27 06:14:02;;;;;;;3.43;2.07;;;6.10;71.60;;;;;;4915745;29;20517;-78
2021/04/27 06:16:30;;;;;;;2.00;1.80;;;6.40;71.30;;;;;;4916958;29;20440;-78
2021/04/27 06:18:58;;;;;;;2.63;2.00;;;6.70;71.20;;;;;;4915690;29;20487;-78
2021/04/27 06:21:25;;;;;;;4.53;2.03;;;7.00;71.10;;;;;;4915554;29;21000;-78
2021/04/27 06:23:53;;;;;;;1.93;1.73;;;7.30;70.90;;;;;;4916754;29;20883;-79
2021/04/27 06:26:21;;;;;;;3.50;2.00;;;7.50;70.80;;;;;;4916293;29;20457;-78
2021/04/27 06:28:48;;;;;;;3.80;2.20;;;7.80;70.20;;;;;;4915579;29;20480;-78
2021/04/27 06:31:15;;;;;;;2.40;1.90;;;8.00;70.20;;;;;;4917006;29;20540;-78
2021/04/27 06:33:42;;;;;;;3.20;2.07;;;8.10;70.20;;;;;;4916722;29;20466;-78
2021/04/27 06:36:13;;;;;;;2.77;2.00;;;8.30;70.20;;;;;;4916153;29;20447;-78
2021/04/27 06:38:40;;;;;;;3.50;2.10;;;8.60;69.50;;;;;;4917697;29;20873;-79
2021/04/27 06:41:07;;;;;;;3.87;2.10;;;8.90;69.50;;;;;;4919258;29;20479;-79
2021/04/27 06:43:35;;;;;;;2.87;2.03;;;9.20;69.70;;;;;;4919618;29;20468;-78
2021/04/27 06:46:02;;;;;;;2.50;1.90;;;9.40;69.70;;;;;;4920525;29;20861;-78
2021/04/27 06:48:33;;;;;;;6.63;1.97;;;9.70;69.70;;;;;;4921035;29;20782;-78
2021/04/27 06:51:01;;;;;;;2.50;1.73;;;9.90;69.40;;;;;;4919761;29;20535;-78
2021/04/27 06:53:31;;;;;;;2.30;2.03;;;10.10;68.00;;;;;;4919208;29;20472;-78
2021/04/27 06:55:58;;;;;;;5.67;2.77;;;10.30;67.80;;;;;;4920388;29;20451;-78
2021/04/27 06:58:26;;;;;;;4.33;2.33;;;10.50;67.60;;;;;;4920095;29;20802;-78
2021/04/27 07:00:53;;;;;;;3.33;2.53;;;10.60;67.60;;;;;;4919251;29;20479;-78
2021/04/27 07:03:21;;;;;;;3.70;2.47;;;10.80;67.40;;;;;;4920291;29;20531;-79
2021/04/27 07:05:48;;;;;;;6.07;3.90;;;11.00;67.40;;;;;;4919433;29;20448;-79
2021/04/27 07:08:15;;;;;;;3.20;2.60;;;11.10;67.30;;;;;;4919256;29;20976;-78
2021/04/27 07:10:43;;;;;;;4.40;2.97;;;11.40;67.30;;;;;;4920006;29;20506;-77
2021/04/27 07:13:10;;;;;;;2.63;1.93;;;11.50;66.70;;;;;;4919804;29;20538;-78
2021/04/27 07:15:37;;;;;;;2.30;1.97;;;11.60;66.70;;;;;;4920065;29;20441;-78
2021/04/27 07:18:05;;;;;;;4.27;1.90;;;11.80;66.80;;;;;;4919880;29;20447;-78
2021/04/27 07:20:32;;;;;;;3.53;2.00;;;12.00;66.60;;;;;;4920574;29;20594;-79
2021/04/27 07:22:59;;;;;;;4.10;2.50;;;12.20;66.60;;;;;;4919923;29;20468;-79
2021/04/27 07:25:27;;;;;;;2.60;1.90;;;12.30;66.20;;;;;;4918814;29;20488;-79
2021/04/27 07:27:55;;;;;;;2.20;1.83;;;12.50;66.40;;;;;;4918617;29;20551;-78
2021/04/27 07:30:22;;;;;;;4.27;2.10;;;12.60;66.30;;;;;;4918503;29;20532;-79
2021/04/27 07:32:51;;;;;;;3.80;1.80;;;12.80;66.10;;;;;;4919781;29;20464;-79
2021/04/27 07:35:19;;;;;;;3.40;2.00;;;12.90;65.80;;;;;;4920063;29;20427;-79
2021/04/27 07:37:46;;;;;;;4.47;2.60;;;13.10;65.40;;;;;;4919921;29;20539;-79
2021/04/27 07:40:14;;;;;;;2.90;2.60;;;13.10;65.60;;;;;;4919924;29;20969;-79
2021/04/27 07:42:42;;;;;;;2.80;1.93;;;13.20;64.70;;;;;;4920474;29;20461;-78
2021/04/27 07:45:13;;;;;;;2.23;1.97;;;13.30;64.80;;;;;;4918834;29;20495;-79
2021/04/27 07:47:40;;;;;;;4.23;2.53;;;13.40;64.40;;;;;;4918504;29;21024;-78
2021/04/27 07:50:09;;;;;;;5.30;3.20;;;13.50;64.10;;;;;;4919533;29;20749;-79
2021/04/27 07:52:38;;;;;;;3.80;2.27;;;13.50;63.70;;;;;;4919152;29;20444;-79
2021/04/27 07:55:08;;;;;;;2.90;2.13;;;13.50;63.50;;;;;;4918987;29;20457;-78
2021/04/27 07:57:35;;;;;;;2.80;2.20;;;13.50;63.30;;;;;;4920614;29;20483;-79
2021/04/27 08:00:05;;;;;;;2.90;2.40;;;13.60;63.40;;;;;;4918799;29;20424;-78
2021/04/27 08:02:39;;;;;;;2.83;2.13;;;13.70;63.40;;;;;;4919693;29;20444;-79
2021/04/27 08:05:09;;;;;;;2.93;2.60;;;13.90;63.40;;;;;;4920385;29;20454;-78
2021/04/27 08:07:36;;;;;;;2.67;2.13;;;14.00;63.00;;;;;;4919906;29;20937;-79
2021/04/27 08:10:06;;;;;;;3.87;2.13;;;14.10;63.10;;;;;;4918879;29;21010;-78
2021/04/27 08:12:34;;;;;;;3.80;2.17;;;14.10;62.00;;;;;;4919328;29;20461;-78
2021/04/27 08:15:01;;;;;;;3.47;2.13;;;14.10;61.90;;;;;;4917601;29;20526;-78
2021/04/27 08:17:28;;;;;;;3.00;1.90;;;14.30;61.60;;;;;;4917446;29;20416;-78
2021/04/27 08:19:57;;;;;;;3.17;1.90;;;14.30;60.70;;;;;;4917573;29;20477;-78
2021/04/27 08:22:25;;;;;;;2.63;1.77;;;14.30;60.80;;;;;;4918012;29;20447;-79
2021/04/27 08:24:52;;;;;;;4.23;1.83;;;14.30;60.60;;;;;;4917633;29;20444;-79
2021/04/27 08:27:20;;;;;;;2.50;2.10;;;14.40;60.60;;;;;;4918187;29;20453;-79
2021/04/27 08:29:47;;;;;;;5.40;2.13;;;14.50;60.50;;;;;;4921164;29;20453;-80
2021/04/27 08:32:14;;;;;;;2.80;2.10;;;14.70;60.50;;;;;;4920279;29;20503;-80
2021/04/27 08:34:41;;;;;;;3.43;1.97;;;14.90;60.40;;;;;;4919345;29;20470;-79
2021/04/27 08:37:09;;;;;;;2.40;1.80;;;15.00;60.00;;;;;;4920447;29;20440;-79
2021/04/27 08:39:36;;;;;;;2.33;1.87;;;15.10;59.40;;;;;;4919721;29;20464;-79
2021/04/27 08:42:05;;;;;;;2.53;1.60;;;15.20;59.20;;;;;;4918246;29;20492;-79
2021/04/27 08:44:32;;;;;;;2.27;2.00;;;15.30;59.10;;;;;;4920893;29;20522;-78
2021/04/27 08:46:59;;;;;;;3.30;1.80;;;15.40;58.70;;;;;;4921145;29;20443;-78
2021/04/27 08:49:27;;;;;;;2.10;1.73;;;15.50;58.40;;;;;;4919884;29;20453;-79
2021/04/27 08:51:54;;;;;;;2.50;1.83;;;15.50;58.00;;;;;;4919527;29;20452;-79
2021/04/27 08:54:32;;;;;;;2.30;1.70;;;15.70;58.00;;;;;;4920792;29;20437;-80
2021/04/27 08:56:59;;;;;;;1.80;1.50;;;15.70;57.60;;;;;;4920122;29;20528;-79
2021/04/27 08:59:26;;;;;;;4.13;1.60;;;15.80;57.30;;;;;;4919565;29;20449;-79
2021/04/27 09:01:53;;;;;;;2.70;1.70;;;15.80;57.00;;;;;;4918800;29;20489;-79
2021/04/27 09:04:40;;;;;;;2.80;1.83;;;15.90;57.00;;;;;;4920626;29;20441;-80
2021/04/27 09:07:10;;;;;;;1.70;1.47;;;16.00;56.50;;;;;;4921087;29;20421;-80
2021/04/27 09:09:43;;;;;;;2.33;1.40;;;16.10;56.40;;;;;;4919345;29;20505;-79
2021/04/27 09:12:11;;;;;;;5.50;4.13;;;16.20;55.70;;;;;;4920638;29;21002;-80
2021/04/27 09:14:39;;;;;;;3.00;1.90;;;16.10;55.30;;;;;;4920337;29;20426;-79
2021/04/27 09:17:11;;;;;;;2.33;1.67;;;16.10;55.10;;;;;;4921749;29;20441;-79
2021/04/27 09:19:42;;;;;;;2.93;1.80;;;16.20;54.80;;;;;;4921742;29;20425;-80
2021/04/27 09:22:18;;;;;;;2.10;1.50;;;16.20;54.60;;;;;;4919948;29;20495;-80
2021/04/27 09:24:49;;;;;;;2.70;2.13;;;16.20;54.10;;;;;;4920968;29;20452;-79
2021/04/27 09:27:31;;;;;;;4.40;2.10;;;16.20;54.00;;;;;;4920446;29;20530;-80
2021/04/27 09:30:09;;;;;;;1.43;1.33;;;16.20;53.50;;;;;;4920153;29;20515;-81
2021/04/27 09:32:38;;;;;;;2.97;1.90;;;16.20;53.40;;;;;;4920930;29;21056;-80
2021/04/27 09:35:26;;;;;;;2.73;1.80;;;16.20;53.40;;;;;;4922856;29;20453;-81
2021/04/27 09:38:16;;;;;;;3.40;1.23;;;16.20;53.30;;;;;;4920925;29;20496;-81
2021/04/27 09:40:53;;;;;;;3.10;1.50;;;16.20;52.70;;;;;;4924499;29;20469;-80
2021/04/27 09:43:23;;;;;;;2.20;1.77;;;16.10;51.80;;;;;;4920091;29;20536;-81
2021/04/27 09:45:52;;;;;;;2.60;2.00;;;16.00;52.20;;;;;;4921678;29;20867;-80
2021/04/27 09:48:32;;;;;;;3.13;1.90;;;15.90;51.40;;;;;;4922180;29;20455;-81
2021/04/27 09:51:22;;;;;;;2.87;1.87;;;15.80;50.80;;;;;;4920567;29;20193;-80
2021/04/27 09:54:06;;;;;;;1.93;1.40;;;15.70;51.30;;;;;;4919929;29;20445;-80
2021/04/27 09:56:42;;;;;;;2.40;1.80;;;15.60;51.60;;;;;;4919243;29;20808;-80
2021/04/27 09:59:12;;;;;;;3.23;1.77;;;15.60;50.70;;;;;;4919391;29;20450;-80
2021/04/27 10:01:40;;;;;;;2.33;1.90;;;15.60;49.60;;;;;;4920371;29;20476;-81
2021/04/27 10:04:09;;;;;;;2.50;1.90;;;15.50;50.00;;;;;;4919273;29;20461;-80
2021/04/27 10:06:38;;;;;;;2.17;1.73;;;15.50;50.30;;;;;;4920008;29;20472;-80
2021/04/27 10:09:06;;;;;;;2.00;1.57;;;15.60;50.60;;;;;;4920291;29;20428;-80
2021/04/27 10:11:34;;;;;;;1.70;1.47;;;15.70;50.10;;;;;;4918284;29;20524;-81
2021/04/27 10:14:05;;;;;;;1.93;1.80;;;15.70;49.90;;;;;;4920404;29;20487;-80
2021/04/27 10:16:33;;;;;;;3.17;2.27;;;15.70;50.10;;;;;;4926401;29;20893;-79
2021/04/27 10:19:06;;;;;;;3.57;1.90;;;15.70;50.00;;;;;;4925878;29;20453;-81
2021/04/27 10:21:33;;;;;;;3.63;1.60;;;15.70;49.90;;;;;;4925158;29;20452;-80
2021/04/27 10:24:05;;;;;;;2.23;1.50;;;15.80;49.80;;;;;;4927302;29;20432;-80
2021/04/27 10:26:34;;;;;;;2.87;1.70;;;15.70;49.80;;;;;;4925735;29;20432;-79
2021/04/27 10:29:06;;;;;;;2.33;1.60;;;15.80;50.00;;;;;;4923594;29;20454;-81
2021/04/27 10:31:35;;;;;;;2.40;1.90;;;15.90;50.20;;;;;;4924103;29;20426;-80
2021/04/27 10:34:08;;;;;;;5.43;2.60;;;15.90;49.80;;;;;;4923404;29;20488;-80
2021/04/27 10:36:39;;;;;;;3.77;2.00;;;16.00;50.00;;;;;;4925397;29;20472;-80
2021/04/27 10:39:07;;;;;;;5.07;2.80;;;16.10;50.10;;;;;;4928970;29;20973;-80
2021/04/27 10:41:47;;;;;;;2.40;2.10;;;16.20;49.70;;;;;;4925148;29;20512;-80
2021/04/27 10:44:16;;;;;;;2.80;2.27;;;16.20;49.50;;;;;;4922783;29;20476;-80
2021/04/27 10:47:00;;;;;;;2.03;1.83;;;16.10;49.20;;;;;;4926490;29;20448;-80
2021/04/27 10:49:46;;;;;;;2.83;2.50;;;16.00;49.10;;;;;;4926930;29;20817;-81
2021/04/27 10:52:28;;;;;;;2.90;2.00;;;16.00;49.20;;;;;;4922914;29;20468;-80
2021/04/27 10:55:33;;;;;;;3.90;2.80;;;16.10;49.60;;;;;;4926261;29;20453;-78
2021/04/27 10:58:02;;;;;;;2.90;2.10;;;16.20;49.40;;;;;;4919354;29;20464;-76
2021/04/27 11:00:50;;;;;;;4.10;2.63;;;16.20;49.50;;;;;;4920049;29;20464;-77
2021/04/27 11:03:22;;;;;;;4.03;2.30;;;16.20;49.00;;;;;;4920310;29;20479;-77
2021/04/27 11:06:14;;;;;;;2.60;2.40;;;16.10;48.80;;;;;;4918796;29;20450;-78
2021/04/27 11:08:46;;;;;;;2.77;2.30;;;16.20;47.60;;;;;;4919975;29;20464;-78
2021/04/27 11:11:19;;;;;;;2.20;1.83;;;16.20;47.80;;;;;;4920748;29;20421;-78
2021/04/27 11:13:48;;;;;;;4.20;2.40;;;16.10;48.00;;;;;;4920215;29;20468;-78
2021/04/27 11:16:28;;;;;;;3.67;2.20;;;16.10;47.70;;;;;;4919823;29;20451;-78
2021/04/27 11:19:42;;;;;;;2.50;2.00;;;16.10;46.50;;;;;;4920295;29;20192;-78
2021/04/27 11:22:21;;;;;;;2.67;2.47;;;16.00;46.50;;;;;;4919921;29;20523;-78
2021/04/27 11:24:48;;;;;;;3.53;1.87;;;15.80;46.80;;;;;;4918100;29;20541;-79
2021/04/27 11:27:24;;;;;;;3.27;1.93;;;15.70;47.20;;;;;;4923068;29;20476;-78
2021/04/27 11:30:11;;;;;;;3.23;1.93;;;15.70;47.70;;;;;;4920819;29;20532;-78
2021/04/27 11:32:41;;;;;;;9.03;2.57;;;15.80;47.90;;;;;;4922299;29;20553;-78
2021/04/27 11:35:15;;;;;;;2.03;1.60;;;15.80;47.90;;;;;;4921984;29;20428;-78
2021/04/27 11:37:45;;;;;;;3.00;2.37;;;15.80;48.50;;;;;;4921151;29;20822;-78
2021/04/27 11:40:24;;;;;;;2.47;2.17;;;15.90;47.90;;;;;;4920833;29;20492;-78
2021/04/27 11:42:53;;;;;;;3.53;2.50;;;15.90;48.00;;;;;;4920924;29;20539;-78
2021/04/27 11:45:21;;;;;;;2.30;2.10;;;15.90;47.70;;;;;;4920240;29;20532;-78
2021/04/27 11:47:50;;;;;;;3.23;2.47;;;15.90;47.50;;;;;;4918221;29;20456;-78
2021/04/27 11:50:20;;;;;;;5.70;3.17;;;15.80;47.30;;;;;;4917881;29;20480;-79
2021/04/27 11:53:02;;;;;;;3.50;2.33;;;15.80;46.80;;;;;;4922175;29;20563;-79
2021/04/27 11:55:42;;;;;;;2.20;2.00;;;15.60;46.70;;;;;;4922469;29;20484;-79
2021/04/27 11:58:13;;;;;;;2.90;2.23;;;15.50;46.60;;;;;;4918474;29;20815;-79
2021/04/27 12:00:45;;;;;;;2.93;2.20;;;15.40;46.70;;;;;;4918416;29;20472;-78
2021/04/27 12:03:23;;;;;;;5.40;2.67;;;15.40;46.90;;;;;;4919706;29;20528;-78
2021/04/27 12:05:52;;;;;;;3.93;2.37;;;15.40;47.00;;;;;;4921526;29;20436;-79
2021/04/27 12:08:22;;;;;;;2.10;1.90;;;15.40;46.80;;;;;;4918818;29;20523;-78
2021/04/27 12:11:15;;;;;;;3.00;2.37;;;15.40;46.20;;;;;;4917818;29;20456;-78
2021/04/27 12:13:44;;;;;;;2.07;1.80;;;15.40;46.10;;;;;;4918689;29;20463;-78
2021/04/27 12:16:14;;;;;;;2.80;2.50;;;15.30;46.30;;;;;;4917668;29;20459;-78
2021/04/27 12:18:56;;;;;;;2.87;2.50;;;15.20;46.00;;;;;;4918808;29;20456;-79
2021/04/27 12:21:32;;;;;;;2.93;2.60;;;15.10;45.70;;;;;;4920174;29;20456;-79
2021/04/27 12:24:14;;;;;;;2.77;2.47;;;15.00;45.80;;;;;;4918837;29;20444;-79
2021/04/27 12:26:45;;;;;;;2.30;2.10;;;14.90;45.70;;;;;;4918701;29;20468;-78
2021/04/27 12:29:14;;;;;;;2.50;2.30;;;14.80;45.60;;;;;;4917636;29;20939;-79
2021/04/27 12:31:42;;;;;;;5.03;2.73;;;14.70;45.50;;;;;;4917534;29;20411;-79
2021/04/27 12:34:16;;;;;;;5.60;2.90;;;14.60;45.80;;;;;;4917816;29;20471;-79
2021/04/27 12:36:45;;;;;;;3.50;3.20;;;14.60;46.00;;;;;;4918708;29;20590;-79
2021/04/27 12:39:33;;;;;;;3.13;2.50;;;14.70;46.40;;;;;;4919179;29;20456;-80
2021/04/27 12:42:03;;;;;;;3.33;2.80;;;14.70;46.30;;;;;;4919948;29;20467;-79
2021/04/27 12:44:38;;;;;;;4.07;3.17;;;14.70;46.00;;;;;;4918084;29;20469;-78
2021/04/27 12:47:17;;;;;;;2.83;2.47;;;14.70;45.80;;;;;;4917098;29;20448;-78
2021/04/27 12:49:56;;;;;;;2.90;2.43;;;14.60;45.60;;;;;;4918268;29;20899;-78
2021/04/27 12:52:23;;;;;;;3.07;2.77;;;14.50;45.60;;;;;;4918071;29;20511;-79
2021/04/27 12:54:56;;;;;;;3.40;2.87;;;14.40;45.50;;;;;;4920260;29;20487;-79
2021/04/27 12:57:24;;;;;;;4.40;3.10;;;14.30;45.60;;;;;;4920106;29;20872;-79
2021/04/27 12:59:55;;;;;;;4.53;3.40;;;14.30;45.60;;;;;;4918227;29;20433;-79
2021/04/27 13:02:23;;;;;;;3.00;2.73;;;14.30;45.50;;;;;;4918595;29;20593;-79
2021/04/27 13:04:55;;;;;;;3.40;2.90;;;14.30;45.40;;;;;;4918700;29;20431;-79
2021/04/27 13:07:30;;;;;;;5.03;3.07;;;14.20;45.20;;;;;;4920284;29;20516;-79
2021/04/27 13:10:04;;;;;;;4.57;3.07;;;14.20;45.50;;;;;;4918370;29;20493;-79
2021/04/27 13:12:32;;;;;;;3.23;2.43;;;14.20;45.50;;;;;;4920216;29;20485;-79
2021/04/27 13:15:01;;;;;;;3.23;2.50;;;14.20;45.50;;;;;;4918691;29;20552;-79
2021/04/27 13:17:36;;;;;;;5.47;2.80;;;14.20;45.50;;;;;;4920479;29;20411;-79